Minna Airport

METAR DNMN TAF DNAA
30 °C
°C
-
°C
49m
Età
10:48:47
LT
09:48
UTC
0 ft

1.000

2.000

3.000

4.000

5.000

IFR
<?= Yii::t('app', 'Wind direction') ?> <?= Yii::t('app', 'of'); ?>
080°
18:41
Tramonto
17%
Umidità
Taglio del vento
Chiuso/Neve
Raggio visivo RWY
Condizione della RWY
Visibilità verticale
Visibilità minima
CAVOK
Tendenza
Correzione
Rapporto speciale
1013 hPa
QNH
METAR DNMN 090900Z 08019KT 3000 HZ NSC 30/02 Q1013
Caligine
11 kt
11 kt
10:00
MVFR
10 kt
11:00
MVFR
10 kt
12:00
MVFR
10 kt
13:00
VFR
2 kt
14:00
VFR
2 kt
15:00
VFR
2 kt
16:00
VFR
2 kt
3 km
Vista
No
Base nuvolosa
19 kt
Vento
metar-taf.com/DNMN

Metar-Taf.com

Decodificatore visivo

Noi e le terze parti seguiamo il tuo comportamento su internet con i cookie. Se continui, riteniamo che tu sia d'accordo con la nostra Politica sui cookie.